Tiempo atmosférico en la estación meteorológica de Badajoz Aeropuerto, Badajoz (185 m.)



Fecha
DESCASC
Temp. máxima en grados centígrados (hora)
DESCASC
Temp. mínima en grados centígrados (hora)
DESCASC
Temp. media en grados centígrados
DESCASC
Racha de viento máxima en m/sg (hora)
DESCASC
Velocidad máxima media en intervalos de 10 minutos(hora)
DESCASC
Precipitaciones diarias en mm
DESCASC
Precipitaciones de 00:00 a 06:00 en mm
DESCASC
Precipitaciones de 06:00 a 12:00 en mm
DESCASC
Precipitaciones de 12:00 a 18:00 en mm
DESCASC
Precipitaciones de 18:00 a 24:00 en mm
DESCASC
05-12-2019 17.2 (16:40) 6.9 (08:20) 12.1 6.94 (13:50) 4.72 (13:50) 0 0 0 0 0
04-12-2019 14.6 (14:00) 5.1 (04:50) 9.9 3.61 (14:10) 2.5 (06:30) 0 0 0 0 0
03-12-2019 15.9 (15:20) 6.1 (00:00) 11 7.78 (14:50) 5.28 (14:30) 0 0 0 0 0
02-12-2019 14.7 (15:40) 8 (00:00) 11.3 13.33 (14:30) 8.89 (14:10) 0 0 0 0 0
01-12-2019 15.9 (14:00) 8.4 (00:00) 12.1 9.17 (15:00) 5.28 (19:50) 4 0.2 0.4 2.4 1
30-11-2019 19 (14:10) 11.2 (00:00) 15.1 12.5 (18:50) 6.11 (18:50) 2 0 0 0 2
29-11-2019 18.4 (13:50) 13 (00:00) 15.7 6.11 (02:30) 3.89 (04:50) 0 0 0 0 0
28-11-2019 17.4 (13:30) 11 (00:00) 14.2 7.22 (16:40) 3.61 (11:20) 0 0 0 0 0
27-11-2019 18 (14:00) 11.1 (00:00) 14.6 8.06 (14:00) 4.44 (14:00) 1.2 1.2 0 0 0
26-11-2019 18.8 (15:10) 12.9 (00:00) 15.8 10.56 (19:10) 4.17 (15:30) 3.6 0.6 0.2 1.6 1.2
25-11-2019 19.1 (15:50) 12.8 (00:00) 16 11.11 (05:00) 5 (14:50) 0.4 0.2 0.2 0 0
24-11-2019 15.9 (13:30) 6.7 (00:00) 11.3 8.33 (22:10) 3.61 (21:40) 0 0 0 0 0
23-11-2019 16.3 (14:40) 9.3 (00:00) 12.8 14.72 (01:40) 8.33 (12:40) 0 0 0 0 0
22-11-2019 17.7 (16:10) 10.8 (00:00) 14.3 15 (20:10) 8.89 (13:20) 30.4 1 10.8 18.2 0.4
21-11-2019 16.3 (16:50) 9.7 (00:00) 13 6.11 (08:00) 3.33 (22:30) 1.4 0 1.4 0 0
20-11-2019 14.2 (16:50) 7.5 (00:00) 10.8 6.39 (09:20) 3.89 (09:10) 17 1.8 14 0 1.2
19-11-2019 12.2 (15:30) 2.7 (00:00) 7.4 3.33 (02:40) 1.94 (12:50) 0 0 0 0 0
18-11-2019 16 (15:50) 5.4 (00:00) 10.7 8.33 (00:40) 5.56 (00:40) 0 0 0 0 0
17-11-2019 16.6 (15:10) 7.5 (00:00) 12.1 9.72 (17:40) 6.11 (23:59) 9.8 0.6 0.4 7.8 1
16-11-2019 15.5 (15:10) 2.2 (00:00) 8.9 7.5 (16:40) 4.72 (16:30) 0 0 0 0 0
15-11-2019 14.2 (15:00) 5 (00:00) 9.6 13.89 (13:00) 7.78 (12:40) 0 0 0 0 0
14-11-2019 14.2 (14:30) 8.1 (00:00) 11.2 15.83 (17:20) 10.56 (15:30) 0.8 0 0.8 0 0
13-11-2019 20.7 (14:30) 11.3 (00:00) 16 10.83 (12:00) 7.22 (12:00) 0 0 0 0 0
12-11-2019 18.2 (16:20) 7.6 (00:00) 12.9 10.28 (13:00) 7.5 (13:00) 0 0 0 0 0
11-11-2019 19.7 (15:00) 10.4 (23:40) 15.1 10.56 (18:40) 6.94 (18:40) 0 0 0 0 0
10-11-2019 15.8 (12:00) 8.4 (00:00) 12.1 11.11 (16:10) 8.06 (15:50) 0 0 0 0 0
09-11-2019 17.4 (14:10) 4.6 (00:00) 11 8.61 (14:40) 5.28 (13:30) 0 0 0 0 0
08-11-2019 16.9 (15:30) 8.3 (00:00) 12.6 10.28 (14:40) 6.67 (14:40) 0 0 0 0 0
07-11-2019 17.9 (14:50) 10.9 (00:00) 14.4 13.61 (16:40) 9.17 (17:40) 0 0 0 0 0
06-11-2019 18.3 (12:50) 8.6 (00:00) 13.4 8.33 (14:50) 5.28 (14:50) 0 0 0 0 0

Gráficas

Temp. máximas Temp. mínimas Temp. medias Precipitaciones Rachas de viento máximas Velocidades máximas media en intervalos de 10 minutos

Datos horarios

Fecha y hora oficial Temperatura (ºC) Velocidad del viento (km/h) Dirección del viento Racha (km/h) Dirección de racha Precipitación (mm) Presión (hPa) Tendencia (hPa) Humedad (%)
2019-12-05 23:00:00 9.6 4 Sur 18 Nordeste 0 997.5 1.9 80
2019-12-05 22:00:00 10.4 12 Nordeste 19 Nordeste 0 996.9 1.9 77
2019-12-05 21:00:00 10.5 12 Norte 18 Nordeste 0 996.3 2 77
2019-12-05 20:00:00 10.6 9 Nordeste 12 Nordeste 0 995.6 1.7 77
2019-12-05 19:00:00 12.7 10 Nordeste 17 Nordeste 0 995 1.2 71
2019-12-05 18:00:00 15 11 Este 15 Este 0 994.3 0.4 64
2019-12-05 17:00:00 16.1 12 Nordeste 21 Nordeste 0 993.9 -0.4 58
2019-12-05 16:00:00 15.7 10 Nordeste 23 Nordeste 0 993.8 -1.1 58
2019-12-05 15:00:00 16.4 15 Nordeste 23 Nordeste 0 993.9 -1.4 54
2019-12-05 14:00:00 16.4 13 Nordeste 25 Nordeste 0 994.3 -0.7 58
2019-12-05 13:00:00 15.7 10 Este 19 Nordeste 0 994.9 0.6 62
2019-12-05 12:00:00 13.1 7 Nordeste 11 Nordeste 0 995.3 1.8 69
2019-12-05 11:00:00 10.7 6 Norte 9 Norte 0 995 2.3 77
2019-12-05 10:00:00 8.4 4 Norte 9 Noroeste 0 994.3 2.1 84
2019-12-05 09:00:00 7.1 4 Oeste 8 Noroeste 0 993.5 1.9 85
2019-12-05 08:00:00 7.1 4 Noroeste 8 Noroeste 0 992.7 1.3 86
2019-12-05 07:00:00 7.5 4 Noroeste 6 Noroeste 0 992.2 1.1 85
2019-12-05 06:00:00 7.5 0 Calma 7 Noroeste 0 991.6 0.6 85
2019-12-05 05:00:00 7.9 5 Noroeste 9 Noroeste 0 991.4 0.6 84
2019-12-05 04:00:00 8.4 4 Noroeste 6 Noroeste 0 991.1 0.6 82
2019-12-05 03:00:00 8.9 5 Noroeste 7 Noroeste 0 991 1 83
2019-12-05 02:00:00 9.6 2 Norte 8 Norte 0 990.8 1.2 81
2019-12-05 01:00:00 10.5 3 Oeste 8 Oeste 0 990.5 1 85
2019-12-05 00:00:00 10.7 3 Oeste 6 Oeste 0 990 0.7 83
2019-12-04 23:00:00 10.7 3 Noroeste 11 Nordeste 0 989.6 0.9 83
2019-12-04 22:00:00 10.7 5 Nordeste 10 Norte 0 989.5 1.4 85
2019-12-04 21:00:00 10.9 5 Norte 12 Norte 0 989.3 1.6 84
2019-12-04 20:00:00 10.9 5 Noroeste 8 Noroeste 0 988.7 1.2 80
2019-12-04 19:00:00 11.5 3 Sudoeste 5 Sudoeste 0 988.1 0.8 74
2019-12-04 18:00:00 12.6 2 Sudoeste 5 Nordeste 0 987.7 0.4 70
2019-12-04 17:00:00 13.8 3 Noroeste 5 Nordeste 0 987.5 -0.4 61
2019-12-04 16:00:00 13.9 3 Norte 6 Norte 0 987.3 -1 61
2019-12-04 15:00:00 13.6 5 Nordeste 13 Noroeste 0 987.3 -1.7 62
2019-12-04 14:00:00 14.6 3 Noroeste 10 Oeste 0 987.9 -1.3 60
2019-12-04 13:00:00 13.2 4 Nordeste 13 Norte 0 988.3 -0.7 66
2019-12-04 12:00:00 11.8 4 Noroeste 9 Norte 0 989 0.7 71
2019-12-04 11:00:00 10 3 Nordeste 6 Nordeste 0 989.2 0.9 80
2019-12-04 10:00:00 7.6 3 Sudoeste 10 Este 0 989 0.3 92
2019-12-04 09:00:00 5.7 8 Este 10 Este 0 988.3 -0.4 94
2019-12-04 08:00:00 5.7 4 Sudeste 7 Sudeste 0 988.3 -0.6 94
2019-12-04 07:00:00 5.7 4 Oeste 12 Oeste 0 988.7 -0.8 94
2019-12-04 06:00:00 5.4 7 Oeste 11 Oeste 0 988.7 -1.2 95
2019-12-04 05:00:00 5.1 4 Oeste 8 Noroeste 0 988.9 -1.5 93
2019-12-04 04:00:00 5.8 4 Oeste 7 Oeste 0 989.5 -1.1 92
2019-12-04 03:00:00 6.2 5 Oeste 8 Oeste 0 989.9 -1.2 92
2019-12-04 02:00:00 6.4 5 Oeste 8 Oeste 0 990.4 -0.8 90
2019-12-04 01:00:00 7 4 Noroeste 9 Oeste 0 990.6 -0.4 88
2019-12-04 00:00:00 7.6 5 Oeste 8 Noroeste 0 991.1 0.2 86
2019-12-03 23:00:00 8.3 3 Oeste 6 Oeste 0 991.2 0.9 83
2019-12-03 22:00:00 9.2 5 Oeste 8 Oeste 0 991 0.8 79
2019-12-03 21:00:00 9.8 6 Oeste 9 Oeste 0 990.9 0.7 78
2019-12-03 20:00:00 9.9 8 Nordeste 12 Norte 0 990.3 0.5 77
2019-12-03 19:00:00 10.9 9 Norte 14 Norte 0 990.2 0.3 74
2019-12-03 18:00:00 12.8 9 Norte 21 Norte 0 990.2 0.3 67
2019-12-03 17:00:00 14.9 17 Norte 23 Norte 0 989.8 -0.9 57
2019-12-03 16:00:00 15.7 16 Norte 27 Norte 0 989.9 -1.9 52
2019-12-03 15:00:00 15.6 18 Norte 28 Nordeste 0 989.9 -2.5 54
2019-12-03 14:00:00 15.5 17 Norte 25 Norte 0 990.7 -2.1 55
2019-12-03 13:00:00 14.7 15 Nordeste 25 Nordeste 0 991.8 -1.1 58
2019-12-03 12:00:00 13.3 13 Norte 25 Norte 0 992.4 -0.3 61
2019-12-03 11:00:00 11.4 16 Norte 22 Norte 0 992.8 0.2 67
2019-12-03 10:00:00 8.7 9 Norte 15 Norte 0 992.9 0.5 77
2019-12-03 09:00:00 6.1 8 Norte 12 Norte 0 992.7 0.7 83
2019-12-03 08:00:00 6.4 4 Oeste 8 Norte 0 992.6 0.2 83
2019-12-03 07:00:00 7 3 Sudeste 12 Norte 0 992.4 -0.5 81
2019-12-03 06:00:00 7 9 Nordeste 20 Nordeste 0 992 -1 81
2019-12-03 05:00:00 7.4 12 Norte 20 Norte 0 992.4 -0.8 80
2019-12-03 04:00:00 7.4 5 Norte 9 Norte 0 992.9 -0.6 81
2019-12-03 03:00:00 7.5 6 Nordeste 19 Nordeste 0 993 -0.5 81
2019-12-03 02:00:00 7.3 10 Norte 13 Nordeste 0 993.2 0 82
2019-12-03 01:00:00 8.9 6 Este 13 Este 0 993.5 0.3 77
2019-12-03 00:00:00 8.7 7 Este 14 Nordeste 0 993.5 0.7 80
2019-12-02 23:00:00 9.1 10 Nordeste 13 Nordeste 0 993.2 0.8 78
2019-12-02 22:00:00 9.9 5 Este 15 Nordeste 0 993.2 1.5 77
2019-12-02 21:00:00 11.4 8 Nordeste 19 Nordeste 0 992.8 1.6 71
2019-12-02 20:00:00 12.2 14 Nordeste 23 Nordeste 0 992.4 1.7 71
2019-12-02 19:00:00 12.6 12 Nordeste 27 Nordeste 0 991.7 1.3 69
2019-12-02 18:00:00 13.2 16 Nordeste 30 Nordeste 0 991.2 0.9 66
2019-12-02 17:00:00 13.9 21 Nordeste 34 Nordeste 0 990.7 0.3 63
2019-12-02 16:00:00 14.6 26 Este 38 Este 0 990.4 -0.6 61
2019-12-02 15:00:00 14 27 Este 48 Este 0 990.3 -0.9 64
2019-12-02 14:00:00 14.3 28 Nordeste 41 Este 0 990.4 -0.6 63
2019-12-02 13:00:00 13.8 23 Nordeste 45 Nordeste 0 991 0.6 65
2019-12-02 12:00:00 12.8 27 Nordeste 39 Nordeste 0 991.2 1.3 69
2019-12-02 11:00:00 11.5 19 Nordeste 31 Nordeste 0 991 1.7 77
2019-12-02 10:00:00 10.6 13 Nordeste 24 Nordeste 0 990.4 1.6 85
2019-12-02 09:00:00 10 16 Nordeste 26 Nordeste 0 989.9 1.3 86
2019-12-02 08:00:00 9.8 15 Nordeste 20 Nordeste 0 989.3 0.6 87
2019-12-02 07:00:00 9.4 10 Nordeste 22 Nordeste 0 988.8 0.3 90
2019-12-02 06:00:00 9.1 12 Nordeste 17 Nordeste 0 988.6 0.1 91
2019-12-02 05:00:00 8.5 7 Norte 17 Norte 0 988.7 0.2 91
2019-12-02 04:00:00 8.8 8 Norte 15 Norte 0 988.5 -0.3 95
2019-12-02 03:00:00 8.1 4 Norte 8 Nordeste 0 988.5 -0.5 96
2019-12-02 02:00:00 8.1 6 Noroeste 16 Norte 0 988.5 -0.5 95
2019-12-02 01:00:00 8.7 9 Nordeste 18 Nordeste 0 988.8 0.4 95
2019-12-02 00:00:00 8.4 6 Nordeste 16 Norte 0.2 989 1 95
2019-12-01 23:00:00 8.5 10 Noroeste 13 Noroeste 0 989 1.5 95
2019-12-01 22:00:00 8.9 9 Norte 18 Nordeste 0 988.4 1.4 94
2019-12-01 21:00:00 10 8 Norte 16 Nordeste 0 988 1.1 95
2019-12-01 20:00:00 11.1 15 Nordeste 24 Nordeste 0 987.5 0.7 95
2019-12-01 19:00:00 11.5 6 Nordeste 8 Nordeste 0.8 987 0 94
2019-12-01 18:00:00 11.9 5 Oeste 23 Oeste 0.6 986.9 -0.7 91
2019-12-01 17:00:00 12.5 4 Sudoeste 14 Oeste 0.4 986.8 -1.2 90
2019-12-01 16:00:00 12.2 6 Sudoeste 18 Sur 0.8 987 -2.1 89
2019-12-01 15:00:00 13 16 Oeste 33 Oeste 0.6 987.6 -2.8 78
2019-12-01 14:00:00 15.9 11 Oeste 26 Oeste 0 988 -2.6 69
2019-12-01 13:00:00 15.6 12 Sudoeste 31 Oeste 0 989.1 -1.3 74
2019-12-01 12:00:00 13.1 10 Sudoeste 21 Sudoeste 0.2 990.4 0.1 88
2019-12-01 11:00:00 12.3 8 Sudoeste 26 Sudoeste 0.2 990.6 -0.1 91
2019-12-01 10:00:00 11.7 8 Sudoeste 27 Sudoeste 0 990.4 -0.7 92
2019-12-01 09:00:00 11.4 8 Sudoeste 24 Sudoeste 0 990.3 -1.2 91
2019-12-01 08:00:00 11.1 8 Sudoeste 22 Sudoeste 0 990.7 -1.4 92
2019-12-01 07:00:00 11.5 8 Sudoeste 21 Sudoeste 0 991.1 -2.1 93
2019-12-01 06:00:00 11.3 8 Sudoeste 19 Sur 0.2 991.5 -2.6 93
2019-12-01 05:00:00 11.2 9 Sudoeste 19 Sur 0 992.1 -2.2 95
2019-12-01 04:00:00 10.6 5 Sudoeste 16 Oeste 0 993.2 -2.2 96
2019-12-01 03:00:00 10.5 6 Sudoeste 20 Oeste 0 994.1 -1.8 96
2019-12-01 02:00:00 11 9 Sur 18 Sur 0 994.3 -1.9 96
2019-12-01 01:00:00 10.9 6 Sudoeste 14 Oeste 0 995.4 -1 95
2019-12-01 00:00:00 11.2 5 Sudoeste 13 Oeste 0 995.9 -0.5 94
2019-11-30 23:00:00 12 7 Oeste 13 Oeste 0 996.2 0 93
2019-11-30 22:00:00 12.9 4 Sudoeste 12 Sudoeste 0 996.4 0 94
2019-11-30 21:00:00 13.3 5 Sudoeste 17 Oeste 0 996.4 0.7 93
2019-11-30 20:00:00 13.3 9 Oeste 25 Noroeste 0.2 996.2 0.1 92
2019-11-30 19:00:00 13.7 17 Oeste 45 Noroeste 1.8 996.4 0.3 93
2019-11-30 18:00:00 15.3 8 Sudoeste 31 Oeste 0 995.7 -0.9 88
2019-11-30 17:00:00 16.7 13 Sudoeste 32 Sudoeste 0 996.1 -1.5 76
2019-11-30 16:00:00 17.8 9 Sudoeste 32 Sur 0 996.1 -2.5 67
2019-11-30 15:00:00 18 10 Sudoeste 31 Sur 0 996.6 -3.1 66
2019-11-30 14:00:00 18.8 13 Sudoeste 35 Sur 0 997.6 -2.2 65
2019-11-30 13:00:00 17.4 13 Sudoeste 26 Sur 0 998.6 -1 71
2019-11-30 12:00:00 16.5 9 Sur 17 Sudoeste 0 999.7 0.2 76
2019-11-30 11:00:00 15.8 10 Sur 21 Sur 0 999.8 0.1 80
2019-11-30 10:00:00 14.5 12 Sur 21 Sur 0 999.6 0 88
2019-11-30 09:00:00 13.8 9 Sur 15 Sur 0 999.5 -0.1 90
2019-11-30 08:00:00 12.7 4 Oeste 10 Noroeste 0 999.7 -0.4 94
2019-11-30 07:00:00 12.6 2 Sudoeste 10 Sudoeste 0 999.6 -0.6 90
2019-11-30 06:00:00 13 6 Sur 10 Sudoeste 0 999.6 -0.3 93
2019-11-30 05:00:00 13.4 2 Norte 7 Oeste 0 1000.1 0 92
2019-11-30 04:00:00 14 4 Sudoeste 10 Oeste 0 1000.2 -0.3 90
2019-11-30 03:00:00 14.4 4 Sudoeste 8 Sudoeste 0 999.9 -0.9 89
2019-11-30 02:00:00 14.8 4 Sudoeste 10 Oeste 0 1000.1 -0.5 88
2019-11-30 01:00:00 15.3 5 Sudoeste 15 Oeste 0 1000.5 0 86
2019-11-30 00:00:00 15.6 9 Oeste 14 Oeste 0 1000.8 0.7 84
2019-11-29 23:00:00 15.4 4 Sudoeste 9 Sudoeste 0 1000.6 0.8 84
2019-11-29 22:00:00 15.4 3 Oeste 5 Oeste 0 1000.5 0.6 83
2019-11-29 21:00:00 15.5 3 Sudoeste 8 Sur 0 1000.1 0.5 82
2019-11-29 20:00:00 15.9 3 Sudoeste 9 Sudoeste 0 999.8 0.4 80
2019-11-29 19:00:00 16.5 4 Sur 6 Sur 0 999.9 0.5 77
2019-11-29 18:00:00 16.9 2 Sudoeste 15 Sudoeste 0 999.6 0 76
2019-11-29 17:00:00 17.7 5 Sudoeste 15 Sudoeste 0 999.4 -0.7 71
2019-11-29 16:00:00 18.1 6 Sudoeste 19 Sur 0 999.4 -1.1 72
2019-11-29 15:00:00 17.8 5 Sudoeste 17 Oeste 0 999.6 -1.2 72
2019-11-29 14:00:00 18 7 Sudoeste 22 Oeste 0 1000.1 -0.5 71
2019-11-29 13:00:00 18 9 Oeste 21 Oeste 0 1000.5 0.4 75
2019-11-29 12:00:00 17.9 9 Oeste 22 Oeste 0 1000.8 1.2 77
2019-11-29 11:00:00 16.7 7 Sudoeste 18 Sudoeste 0 1000.6 1.5 82
2019-11-29 10:00:00 15.3 5 Sudoeste 16 Sudoeste 0 1000.1 1.4 90
2019-11-29 09:00:00 14.4 5 Sudoeste 12 Sur 0 999.6 1.2 92
2019-11-29 08:00:00 14.4 7 Sudoeste 20 Sudoeste 0 999.1 1.1 92
2019-11-29 07:00:00 14.4 10 Sur 19 Sur 0 998.7 0.5 91
2019-11-29 06:00:00 14.1 6 Sudoeste 21 Sur 0 998.4 0.3 92
2019-11-29 05:00:00 14 14 Sur 22 Sudoeste 0 998 0.2 92
2019-11-29 04:00:00 13.8 7 Sudoeste 20 Sur 0 998.2 0.4 93
2019-11-29 03:00:00 13.8 7 Sudoeste 22 Sudoeste 0 998.1 0.3 93
2019-11-29 02:00:00 13.7 7 Sudoeste 17 Sur 0 997.8 0 93
2019-11-29 01:00:00 13 5 Sudoeste 12 Sur 0 997.8 0.2 93
2019-11-29 00:00:00 13.6 5 Sudoeste 14 Oeste 0 997.8 0.5 91
2019-11-28 23:00:00 14.1 5 Sudoeste 14 Oeste 0 997.8 1 91
2019-11-28 22:00:00 14 4 Sudoeste 15 Oeste 0 997.6 1.3 89
2019-11-28 21:00:00 14.4 4 Sudoeste 12 Sur 0 997.3 1.1 87
2019-11-28 20:00:00 14.6 5 Sudoeste 12 Sudoeste 0 996.8 0.7 84
2019-11-28 19:00:00 15.1 4 Sudoeste 16 Sudoeste 0 996.3 0.3 81
2019-11-28 18:00:00 15.8 5 Sudoeste 13 Sudoeste 0 996.2 -0.1 80
2019-11-28 17:00:00 15.9 6 Sudoeste 26 Sudoeste 0 996.1 -0.5 79
2019-11-28 16:00:00 16.4 9 Sudoeste 23 Sudoeste 0 996 -1 76
2019-11-28 15:00:00 16.5 8 Sudoeste 22 Sudoeste 0 996.3 -1.3 76
2019-11-28 14:00:00 16.7 9 Sudoeste 24 Sudoeste 0 996.6 -1 74
2019-11-28 13:00:00 16.7 9 Sudoeste 25 Sudoeste 0 997 -0.6 74
2019-11-28 12:00:00 15.8 12 Sudoeste 25 Sudoeste 0 997.6 0.6 77
2019-11-28 11:00:00 14.2 8 Sur 17 Sur 0 997.6 1 87
2019-11-28 10:00:00 12.8 3 Oeste 5 Oeste 0 997.6 1.5 93
2019-11-28 09:00:00 12.1 3 Sudeste 8 Nordeste 0 997 1.1 95
2019-11-28 08:00:00 11.9 8 Nordeste 14 Sur 0 996.6 1.1 95
2019-11-28 07:00:00 11.9 9 Sur 17 Sudoeste 0 996.1 0.5 96
2019-11-28 06:00:00 11.5 5 Sudoeste 15 Sudoeste 0 995.9 0.5 97
2019-11-28 05:00:00 11.3 6 Sudoeste 17 Sudoeste 0 995.5 -0.1 96
2019-11-28 04:00:00 11.4 5 Sudoeste 14 Sudoeste 0 995.6 -0.2 94
2019-11-28 03:00:00 11.7 5 Sudoeste 14 Sur 0 995.4 -0.5 94
2019-11-28 02:00:00 11.2 4 Sudoeste 14 Sudoeste 0 995.6 0 92
2019-11-28 01:00:00 11.5 5 Sudoeste 11 Oeste 0 995.8 0.8 91
2019-11-28 00:00:00 11.1 3 Sudoeste 8 Sudoeste 0 995.9 1.3 90
2019-11-27 23:00:00 11.4 2 Sudoeste 8 Oeste 0 995.6 0.9 88
2019-11-27 22:00:00 12.1 3 Sudoeste 12 Sur 0 995 0.9 84
2019-11-27 21:00:00 12.8 5 Sudoeste 13 Sudoeste 0 994.6 1.1 83
2019-11-27 20:00:00 13.6 4 Sudoeste 10 Oeste 0 994.7 1.5 82
2019-11-27 19:00:00 14.6 6 Oeste 12 Oeste 0 994.1 1.1 77
2019-11-27 18:00:00 15.8 5 Sudoeste 15 Sudoeste 0 993.5 0.4 70
2019-11-27 17:00:00 17 6 Sudoeste 20 Oeste 0 993.2 -0.4 62
2019-11-27 16:00:00 17 10 Oeste 21 Oeste 0 993 -1.3 60
2019-11-27 15:00:00 17.1 10 Oeste 28 Oeste 0 993.1 -1.9 60
2019-11-27 14:00:00 17.7 16 Oeste 29 Oeste 0 993.6 -1.1 56
2019-11-27 06:00:00 12.4 4 Sur 12 Sudoeste 0 991.8 0 94
2019-11-27 05:00:00 12.6 5 Sudoeste 12 Sur 0 992.1 0.7 94
2019-11-27 04:00:00 13 6 Sudoeste 19 Oeste 0 992 0.4 92
2019-11-27 03:00:00 13.2 9 Oeste 16 Oeste 0.2 991.8 0.3 93
2019-11-27 02:00:00 13.8 8 Oeste 27 Oeste 0.2 991.4 0 94
2019-11-27 01:00:00 14.4 10 Sudoeste 22 Sudoeste 0.8 991.6 0.3 94
2019-11-27 00:00:00 14.2 8 Sudoeste 18 Sudoeste 0 991.5 0.4 93
2019-11-26 23:00:00 14.2 5 Sudoeste 19 Sudoeste 0 991.4 0.8 93
2019-11-26 22:00:00 14.8 6 Sudoeste 18 Sudoeste 0 991.3 1.1 93
2019-11-26 21:00:00 15.1 6 Sudoeste 17 Sudoeste 0 991.1 1.2 94
2019-11-26 20:00:00 15.6 6 Sudoeste 38 Sudoeste 0.4 990.6 0.9 94
2019-11-26 19:00:00 15.4 10 Sudoeste 25 Sur 0.8 990.2 0.1 94
2019-11-26 18:00:00 16.3 11 Sudoeste 32 Sudoeste 0.2 989.9 -0.6 87
2019-11-26 17:00:00 16.6 9 Sudoeste 33 Sudoeste 0.4 989.7 -1.5 87
2019-11-26 16:00:00 18.3 12 Sudoeste 36 Sudoeste 0 990.1 -1.8 74
2019-11-26 15:00:00 18.7 15 Sudoeste 36 Sur 0 990.5 -2.6 72
2019-11-26 14:00:00 18.1 12 Sudoeste 31 Sudoeste 0.2 991.2 -2.5 78
2019-11-26 13:00:00 17.1 14 Sur 32 Sur 0.8 991.9 -1.6 85
2019-11-26 12:00:00 17.5 10 Sudoeste 24 Sudoeste 0 993.1 -0.3 82
2019-11-26 11:00:00 17 9 Sudoeste 22 Sur 0 993.7 0.2 85
2019-11-26 10:00:00 16 9 Sur 21 Sur 0 993.5 0.2 91
2019-11-26 09:00:00 15.3 6 Sur 15 Sudoeste 0 993.4 -0.1 96
2019-11-26 08:00:00 15.2 9 Sur 16 Sur 0 993.5 -0.4 96
2019-11-26 07:00:00 15 6 Sudoeste 17 Sur 0.2 993.3 -1.1 97
2019-11-26 06:00:00 14.8 7 Sur 14 Sur 0.4 993.5 -1.3 97
2019-11-26 05:00:00 14.2 7 Sur 16 Sur 0.2 993.9 -1.3 96
2019-11-26 04:00:00 14.2 7 Sur 14 Sur 0 994.4 -1.3 95
2019-11-26 03:00:00 14 6 Sur 16 Sudoeste 0 994.8 -1.2 92
2019-11-26 02:00:00 14 7 Sur 15 Sudoeste 0 995.2 -0.7 88
2019-11-26 01:00:00 13.7 6 Sudoeste 14 Sudoeste 0 995.7 -0.5 92
2019-11-26 00:00:00 13 6 Sudoeste 15 Sudoeste 0 996 0.1 92
2019-11-25 23:00:00 13.6 4 Sudoeste 11 Sudoeste 0 995.9 0.4 90
2019-11-25 22:00:00 14.7 6 Sudoeste 13 Oeste 0 996.2 1 86
2019-11-25 21:00:00 15.5 6 Oeste 14 Oeste 0 995.9 1.1 83
2019-11-25 20:00:00 15.5 3 Oeste 7 Oeste 0 995.5 0.6 84
2019-11-25 19:00:00 16 4 Oeste 8 Oeste 0 995.2 0.7 82
2019-11-25 18:00:00 17.1 5 Oeste 18 Noroeste 0 994.8 0.2 77
2019-11-25 17:00:00 18.3 12 Oeste 22 Oeste 0 994.9 -0.1 72
2019-11-25 16:00:00 18.8 14 Oeste 24 Oeste 0 994.5 -0.6 70
2019-11-25 15:00:00 18.5 13 Oeste 26 Oeste 0 994.6 -0.9 76
2019-11-25 14:00:00 18.2 14 Oeste 28 Oeste 0 995 -0.5 72
2019-11-25 13:00:00 18.7 9 Oeste 20 Oeste 0 995.1 0.3 75
2019-11-25 12:00:00 18.7 9 Oeste 22 Oeste 0 995.5 1.2 76
2019-11-25 11:00:00 16.7 9 Oeste 18 Oeste 0 995.5 2.2 89
2019-11-25 10:00:00 15.6 5 Sudoeste 15 Sudoeste 0 994.8 2 94
2019-11-25 09:00:00 15.4 10 Oeste 24 Oeste 0 994.3 1.8 94
2019-11-25 08:00:00 15.2 9 Sudoeste 29 Sur 0 993.3 0.7 94
2019-11-25 07:00:00 15.1 10 Sudoeste 34 Sudoeste 0.2 992.8 -0.3 93
2019-11-25 06:00:00 15 13 Sudoeste 31 Sur 0 992.5 -0.8 93
2019-11-25 05:00:00 14.8 15 Sudoeste 40 Sudoeste 0 992.6 -1.5 92
2019-11-25 04:00:00 14.6 11 Sudoeste 31 Sur 0 993.1 -1.9 90
2019-11-25 03:00:00 14.1 13 Sudoeste 28 Sur 0 993.3 -1.9 91
2019-11-25 02:00:00 13.6 11 Sur 19 Sur 0 994.1 -1 91
2019-11-25 01:00:00 13.1 8 Sur 22 Sur 0.2 995 -0.3 92
2019-11-25 00:00:00 13 10 Sudoeste 29 Sur 0 995.2 0 90
2019-11-24 23:00:00 12.8 11 Sudoeste 30 Sudoeste 0 995.1 -0.3 91
2019-11-24 22:00:00 14.1 10 Sudoeste 29 Sur 0 995.3 0.1 79
2019-11-24 21:00:00 13.8 13 Sur 20 Sur 0 995.2 0.1 79
2019-11-24 20:00:00 13.3 8 Sur 13 Sur 0 995.4 0.2 82
2019-11-24 19:00:00 13.8 8 Sur 15 Sudoeste 0 995.2 0.1 79
2019-11-24 18:00:00 14.4 6 Sudoeste 17 Sudoeste 0 995.1 -0.3 73
2019-11-24 17:00:00 14.5 7 Sur 21 Sudoeste 0 995.2 -0.6 72
2019-11-24 16:00:00 15 8 Sudoeste 19 Sudoeste 0 995.1 -1.2 68
2019-11-24 15:00:00 14.8 5 Oeste 17 Oeste 0 995.4 -1.6 68
2019-11-24 14:00:00 15.2 11 Oeste 20 Oeste 0 995.8 -1.6 67
2019-11-24 13:00:00 15 9 Oeste 19 Oeste 0 996.3 -0.4 71
2019-11-24 12:00:00 14 8 Sudoeste 16 Oeste 0 997 1.1 71
2019-11-24 11:00:00 11 6 Noroeste 9 Noroeste 0 997.4 1.5 87
2019-11-24 10:00:00 8.1 3 Oeste 8 Oeste 0 996.7 1.2 94
2019-11-24 09:00:00 6.9 3 Oeste 6 Sudoeste 0 995.9 0.8 94
2019-11-24 08:00:00 7.4 3 Sudoeste 7 Sudoeste 0 995.9 1.2 93
2019-11-24 07:00:00 8.1 4 Sudoeste 10 Oeste 0 995.5 1.1 93
2019-11-24 06:00:00 7.5 3 Sudoeste 12 Sudoeste 0 995.1 0.8 93
2019-11-24 05:00:00 7.3 4 Sudoeste 13 Oeste 0 994.7 0.6 92
2019-11-24 04:00:00 7.7 5 Sudoeste 13 Sudoeste 0 994.4 0 92
2019-11-24 03:00:00 7.8 3 Sudoeste 13 Oeste 0 994.3 0.1 90
2019-11-24 02:00:00 8.3 10 Oeste 16 Oeste 0 994.1 0.1 89
2019-11-24 01:00:00 9 10 Oeste 16 Sudoeste 0 994.4 0.8 86
2019-11-24 00:00:00 9.4 9 Oeste 17 Oeste 0 994.2 1.1 84
2019-11-23 23:00:00 9.5 5 Sudoeste 19 Oeste 0 994 1.5 81
2019-11-23 22:00:00 10 11 Oeste 19 Oeste 0 993.6 2.3 78
2019-11-23 21:00:00 10.4 9 Oeste 16 Oeste 0 993.1 2.5 78
2019-11-23 20:00:00 10.7 6 Oeste 21 Noroeste 0 992.5 3 78
2019-11-23 19:00:00 11.4 8 Oeste 26 Oeste 0 991.3 2.3 74
2019-11-23 18:00:00 12.7 15 Oeste 36 Oeste 0 990.6 2.4 65
2019-11-23 17:00:00 14.9 20 Oeste 39 Noroeste 0 989.5 0.9 54
2019-11-23 16:00:00 15.6 19 Oeste 39 Noroeste 0 989 0.5 51
2019-11-23 15:00:00 15.8 22 Oeste 38 Oeste 0 988.2 -0.2 54
2019-11-23 14:00:00 15.8 21 Oeste 37 Oeste 0 988.6 1.1 57
2019-11-23 13:00:00 14.7 26 Oeste 44 Noroeste 0 988.5 2.1 61
2019-11-23 12:00:00 13.8 21 Oeste 35 Oeste 0 988.4 3.5 67
2019-11-23 11:00:00 13 17 Oeste 31 Oeste 0 987.5 3.9 70
2019-11-23 10:00:00 11.6 13 Oeste 26 Oeste 0 986.4 4.3 76
2019-11-23 09:00:00 9.9 12 Oeste 32 Oeste 0 984.9 3 84
2019-11-23 08:00:00 9.9 12 Oeste 33 Oeste 0 983.6 2.5 84
2019-11-23 07:00:00 10.3 19 Oeste 31 Oeste 0 982.1 1.6 85
2019-11-23 06:00:00 10.4 13 Oeste 28 Oeste 0 981.9 1.9 85
2019-11-23 05:00:00 10.8 15 Oeste 40 Noroeste 0 981.1 1.8 79
2019-11-23 04:00:00 11 21 Oeste 35 Oeste 0 980.5 1.8 83
2019-11-23 03:00:00 11.8 17 Oeste 41 Oeste 0 980 2.1 80
2019-11-23 02:00:00 11.9 20 Oeste 53 Oeste 0 979.3 1.8 80
2019-11-23 01:00:00 12.3 23 Oeste 48 Oeste 0 978.7 1.1 82
2019-11-23 00:00:00 13.3 21 Oeste 53 Oeste 0 977.9 0.7 77
2019-11-22 23:00:00 13.4 16 Sudoeste 37 Oeste 0 977.5 0.9 76
2019-11-22 22:00:00 13.2 10 Sudoeste 29 Sudoeste 0 977.6 1.3 77
2019-11-22 21:00:00 13.8 13 Sudoeste 54 Oeste 0 977.2 2.5 77
2019-11-22 20:00:00 14.1 23 Oeste 48 Oeste 0.2 976.6 2.4 76
2019-11-22 19:00:00 14 20 Oeste 45 Oeste 0.2 976.3 2.8 81
2019-11-22 18:00:00 15.2 21 Oeste 39 Oeste 0 974.7 1.7 71
2019-11-22 17:00:00 16.8 17 Oeste 41 Noroeste 0 974.2 0.6 66
2019-11-22 16:00:00 17.3 18 Oeste 48 Oeste 0 973.5 0.7 65
2019-11-22 15:00:00 17.2 19 Oeste 35 Oeste 0 973 -2.1 84
2019-11-22 14:00:00 14.3 17 Oeste 53 Oeste 16.4 973.6 -2.4 96
2019-11-22 13:00:00 15.8 23 Sur 50 Sur 1.8 972.8 -4.1 91
2019-11-22 12:00:00 15.1 23 Sur 46 Sudoeste 0.2 975.1 -2.5 91
2019-11-22 11:00:00 14.9 19 Sur 50 Sur 1.8 976 -2.7 90
2019-11-22 10:00:00 13.9 18 Sur 40 Sudoeste 6.8 976.9 -2.8 93
2019-11-22 09:00:00 13.8 21 Sur 39 Sur 1.6 977.6 -3.4 90
2019-11-22 08:00:00 13 14 Sur 26 Sur 0 978.7 -3.3 90
2019-11-22 07:00:00 12.3 14 Sur 26 Sur 0.4 979.7 -3.4 91
2019-11-22 06:00:00 12.2 13 Sur 26 Sur 0.8 981 -3.3 92
2019-11-22 05:00:00 12.1 12 Sur 22 Sur 0 982 -2.5 94
2019-11-22 04:00:00 11.6 6 Sudeste 10 Sur 0.2 983.1 -1.7 95
2019-11-22 03:00:00 11.6 5 Sur 10 Oeste 0 984.3 -0.8 94
2019-11-22 02:00:00 11.9 5 Sudoeste 17 Sur 0 984.5 -1 92
2019-11-22 01:00:00 11.6 7 Sudoeste 15 Sudoeste 0 984.8 -0.9 94
2019-11-22 00:00:00 11.2 5 Sur 15 Sur 0 985.1 -0.8 93
2019-11-21 23:00:00 11.9 10 Sur 17 Sur 0 985.5 -0.4 91
2019-11-21 22:00:00 12 8 Sur 14 Sur 0 985.7 0.1 91
2019-11-21 21:00:00 11.9 9 Sur 13 Sur 0 985.9 0.8 92
2019-11-21 20:00:00 12 2 Sudoeste 7 Sudeste 0 985.9 0.8 90
2019-11-21 19:00:00 13.5 3 Sur 10 Sur 0 985.6 0.3 85
2019-11-21 18:00:00 14.1 7 Sur 12 Sudoeste 0 985.1 -0.4 82
2019-11-21 17:00:00 15.6 6 Sudoeste 15 Sur 0 985.1 -0.9 71
2019-11-21 16:00:00 15.8 5 Sudoeste 13 Sur 0 985.3 -1.5 74
2019-11-21 15:00:00 14.5 4 Sudoeste 15 Oeste 0 985.5 -1.8 81
2019-11-21 14:00:00 14.6 6 Sudoeste 15 Oeste 0 986 -1.1 82
2019-11-21 13:00:00 13.7 6 Sudoeste 12 Oeste 0 986.8 -0.1 85
2019-11-21 12:00:00 13.3 5 Sudoeste 15 Sudoeste 0 987.3 1.2 88
2019-11-21 11:00:00 12.5 4 Sur 10 Oeste 0 987.1 0.9 92
2019-11-21 10:00:00 11.7 3 Oeste 19 Sur 0.2 986.9 0.8 94
2019-11-21 09:00:00 11.6 9 Sudoeste 18 Sudoeste 0.4 986.1 0.1 95
2019-11-21 08:00:00 11.6 9 Sudoeste 22 Sudoeste 0.6 986.2 -0.5 96
2019-11-21 07:00:00 10.7 3 Sur 7 Sur 0.2 986.1 -0.8 96
2019-11-21 06:00:00 10.9 3 Sur 9 Sur 0 986 -1.2 96
2019-11-21 05:00:00 10.5 0 Calma 6 Sudoeste 0 986.7 -0.6 96
2019-11-21 04:00:00 10.2 4 Sudoeste 8 Sur 0 986.9 -0.6 96
2019-11-21 03:00:00 9.9 4 Oeste 14 Sudoeste 0 987.2 -0.3 94
2019-11-21 02:00:00 10.2 6 Sudoeste 16 Sudoeste 0 987.3 -0.3 94
2019-11-21 01:00:00 10.5 6 Sudoeste 21 Sur 0 987.5 0.1 93
2019-11-21 00:00:00 10.6 12 Sur 21 Sudoeste 0 987.5 0.2 91
2019-11-20 23:00:00 10.3 6 Sur 17 Sur 0 987.6 0.7 92
2019-11-20 22:00:00 10.1 4 Sudoeste 13 Sur 0 987.4 0.9 93
2019-11-20 21:00:00 10.4 9 Sur 15 Sur 0 987.3 0.9 91
2019-11-20 20:00:00 11.3 6 Sur 12 Sur 1 986.9 0.6 91
2019-11-20 19:00:00 12 4 Sudeste 7 Sudeste 0.2 986.5 0.3 88
2019-11-20 18:00:00 12.8 5 Norte 12 Noroeste 0 986.4 0 86
2019-11-20 17:00:00 13.9 9 Oeste 13 Noroeste 0 986.3 -0.6 77
2019-11-20 16:00:00 13.3 3 Oeste 10 Noroeste 0 986.2 -1.6 83
2019-11-20 15:00:00 12 4 Noroeste 15 Norte 0 986.4 -2.3 89
2019-11-20 14:00:00 10.9 6 Este 14 Este 0 986.9 -1.8 89
2019-11-20 13:00:00 10.2 8 Este 19 Nordeste 0 987.8 -1.1 92
2019-11-20 12:00:00 8.7 10 Este 18 Este 3.2 988.7 0.4 95
2019-11-20 11:00:00 8.7 11 Este 17 Sudeste 2.2 988.7 -0.6 95
2019-11-20 10:00:00 8.5 8 Sudeste 23 Este 0 988.9 -0.8 96
2019-11-20 09:00:00 8.2 11 Sudeste 20 Sudeste 4 988.3 -1.3 96
2019-11-20 08:00:00 7.9 6 Sudeste 16 Sudeste 2.8 989.3 -0.5 96
2019-11-20 07:00:00 7.6 5 Sudeste 9 Sudeste 1.8 989.7 -0.7 95
2019-11-20 06:00:00 7.7 4 Nordeste 7 Este 1.8 989.6 -1.2 93
2019-11-20 05:00:00 8 7 Este 10 Este 0 989.8 -1.7 91
2019-11-20 04:00:00 8.1 7 Este 9 Este 0 990.4 -1.7 92
2019-11-20 03:00:00 8 7 Este 10 Este 0 990.8 -2.1 93
2019-11-20 02:00:00 8.3 7 Este 9 Este 0 991.5 -1.7 93
2019-11-20 01:00:00 8.1 5 Este 8 Este 0 992.1 -1.2 94
2019-11-20 00:00:00 7.9 3 Este 8 Nordeste 0 992.9 -0.8 92
2019-11-19 23:00:00 8.4 4 Sudeste 8 Este 0 993.2 -0.7 90
2019-11-19 22:00:00 9 3 Sudeste 7 Sur 0 993.3 -0.7 86
2019-11-19 21:00:00 8.8 3 Sudeste 6 Sudeste 0 993.7 -0.1 84
2019-11-19 20:00:00 9.4 3 Sur 5 Sudeste 0 993.9 0 86
2019-11-19 19:00:00 10.6 3 Sur 3 Sur 0 994 0 82
2019-11-19 18:00:00 11.5 3 Noroeste 7 Noroeste 0 993.8 -0.8 76
2019-11-19 17:00:00 12 5 Norte 10 Norte 0 993.9 -1.5 74
2019-11-19 16:00:00 12.1 5 Norte 9 Este 0 994 -2.2 73
2019-11-19 15:00:00 11.9 3 Nordeste 9 Este 0 994.6 -2.4 72
2019-11-19 14:00:00 11 5 Nordeste 10 Este 0 995.4 -2.2 76
2019-11-19 13:00:00 10.4 5 Este 11 Este 0 996.2 -1.2 80
2019-11-19 12:00:00 8.8 6 Este 10 Este 0 997 0 85
2019-11-19 11:00:00 6.6 3 Norte 5 Este 0 997.6 0.8 96
2019-11-19 10:00:00 4.6 4 Este 6 Este 0 997.4 0.9 96
2019-11-19 09:00:00 3.5 4 Este 5 Este 0 997 0.9 96
2019-11-19 08:00:00 2.9 2 Este 7 Oeste 0 996.8 0.5 95
2019-11-19 07:00:00 3.4 3 Sur 10 Este 0 996.5 0.1 94
2019-11-19 06:00:00 4 0 Calma 4 Sudeste 0 996.1 -0.5 93
2019-11-19 05:00:00 4.4 3 Este 6 Este 0 996.3 -0.1 92
2019-11-19 04:00:00 5.4 3 Oeste 9 Noroeste 0 996.4 -0.3 91
2019-11-19 03:00:00 6.2 6 Oeste 12 Sudoeste 0 996.6 -0.1 89
2019-11-19 02:00:00 6.5 5 Sudoeste 9 Sur 0 996.4 -0.8 88
2019-11-19 01:00:00 7.2 3 Sudoeste 9 Sudoeste 0 996.7 -0.1 85
2019-11-19 00:00:00 7.5 4 Oeste 11 Oeste 0 996.7 0.1 83
2019-11-18 23:00:00 8.4 5 Oeste 11 Noroeste 0 997.2 1.2 79
2019-11-18 22:00:00 9.4 6 Oeste 14 Oeste 0 996.8 1.2 73
2019-11-18 21:00:00 9.8 5 Sudoeste 10 Oeste 0 996.6 1.5 71
2019-11-18 20:00:00 10.9 5 Oeste 9 Oeste 0 996 1.3 65
2019-11-18 19:00:00 11.8 4 Oeste 7 Noroeste 0 995.6 0.9 63
2019-11-18 18:00:00 13.4 6 Noroeste 19 Noroeste 0 995.1 0.2 52
2019-11-18 17:00:00 15.4 14 Noroeste 21 Noroeste 0 994.7 -0.2 44
2019-11-18 16:00:00 15.9 15 Noroeste 23 Noroeste 0 994.7 -0.8 42
2019-11-18 15:00:00 15.6 12 Norte 24 Norte 0 994.9 -0.9 45
2019-11-18 14:00:00 14.8 12 Noroeste 23 Noroeste 0 994.9 -0.7 50
2019-11-18 13:00:00 14 12 Norte 27 Norte 0 995.5 0.3 55
2019-11-18 12:00:00 12.9 8 Noroeste 21 Norte 0 995.8 1.3 61
2019-11-18 11:00:00 10.7 9 Oeste 19 Oeste 0 995.6 1.9 75
2019-11-18 10:00:00 8.3 12 Oeste 18 Oeste 0 995.2 1.7 83
2019-11-18 09:00:00 5.8 8 Oeste 14 Oeste 0 994.5 1.6 93
2019-11-18 08:00:00 5.5 7 Oeste 12 Oeste 0 993.7 1 93
2019-11-18 07:00:00 5.9 7 Oeste 18 Oeste 0 993.5 1.4 92
2019-11-18 06:00:00 6.5 8 Oeste 19 Oeste 0 992.9 0.7 89
2019-11-18 05:00:00 6.8 9 Oeste 21 Oeste 0 992.7 0.7 87
2019-11-18 04:00:00 6.7 12 Oeste 22 Noroeste 0 992.1 0.5 89
2019-11-18 03:00:00 7.2 14 Oeste 25 Oeste 0 992.2 0.8 87
2019-11-18 02:00:00 8.1 14 Oeste 28 Noroeste 0 992 0.7 89
2019-11-18 01:00:00 8.9 17 Noroeste 30 Noroeste 0 991.6 0.5 83
2019-11-18 00:00:00 11 22 Noroeste 33 Noroeste 0 991.4 0.4 88
2019-11-17 23:00:00 12.7 15 Oeste 24 Oeste 0 991.3 0 93
2019-11-17 22:00:00 13 11 Oeste 30 Oeste 1 991.1 -0.3 93
2019-11-17 21:00:00 13.4 12 Oeste 25 Oeste 0 991 -0.7 91
2019-11-17 20:00:00 13.7 10 Oeste 24 Oeste 0 991.3 -0.6 91
2019-11-17 19:00:00 13.9 9 Oeste 27 Oeste 0 991.4 -0.7 91
2019-11-17 18:00:00 14.2 17 Oeste 35 Sudoeste 2.2 991.7 -1.1 90
2019-11-17 17:00:00 15 8 Oeste 28 Oeste 5.6 991.9 -1.8 90
2019-11-17 16:00:00 16.4 18 Oeste 30 Oeste 0 992.1 -2.4 79
2019-11-17 15:00:00 16.3 12 Sudoeste 34 Oeste 0 992.8 -2.4 83
2019-11-17 14:00:00 15.3 10 Sudoeste 24 Oeste 0 993.7 -1.6 90
2019-11-17 13:00:00 13.8 8 Sudoeste 25 Sudoeste 0 994.5 -0.7 93
2019-11-17 12:00:00 12.6 10 Sudoeste 23 Sudoeste 0 995.2 0.1 93
2019-11-17 11:00:00 11.5 11 Sudoeste 24 Sudoeste 0 995.3 0.2 95
2019-11-17 10:00:00 10.1 5 Oeste 12 Sudoeste 0 995.2 0.1 95
2019-11-17 09:00:00 9.1 3 Sudoeste 8 Sudoeste 0 995.1 -0.5 95
2019-11-17 08:00:00 8.5 2 Sudoeste 17 Sudoeste 0.2 995.1 -0.9 93
2019-11-17 07:00:00 8 6 Sur 10 Sur 0.2 995.1 -1.4 94
2019-11-17 06:00:00 7.8 5 Sur 10 Sudoeste 0.2 995.6 -1.2 92
2019-11-17 05:00:00 8 4 Sudoeste 10 Sudoeste 0.4 996 -1 90
2019-11-17 04:00:00 8 5 Sudoeste 21 Oeste 0 996.5 -0.8 88
2019-11-17 03:00:00 8.4 6 Oeste 12 Oeste 0 996.8 -0.7 75
2019-11-17 02:00:00 8.2 5 Sudoeste 13 Oeste 0 997 -0.6 72
2019-11-17 01:00:00 8.4 6 Sudoeste 17 Sudoeste 0 997.3 -0.1 70
2019-11-17 00:00:00 7.5 9 Sudoeste 17 Oeste 0 997.5 0.2 72
2019-11-16 23:00:00 7.2 4 Sudoeste 14 Oeste 0 997.6 0.6 70
2019-11-16 22:00:00 8.2 4 Sudoeste 17 Oeste 0 997.4 1.1 66
2019-11-16 21:00:00 9.5 11 Oeste 20 Oeste 0 997.3 1.2 61
2019-11-16 20:00:00 10 10 Oeste 17 Oeste 0 997 1.1 59
2019-11-16 19:00:00 10.2 8 Oeste 20 Oeste 0 996.3 0.8 55
2019-11-16 18:00:00 12.4 9 Oeste 23 Oeste 0 996.1 0.6 45
2019-11-16 17:00:00 14.5 13 Oeste 27 Oeste 0 995.9 0.2 37
2019-11-16 16:00:00 14.8 10 Oeste 21 Oeste 0 995.5 -0.5 39
2019-11-16 15:00:00 15.3 12 Oeste 20 Noroeste 0 995.5 -1.1 36
2019-11-16 14:00:00 14.2 10 Noroeste 24 Noroeste 0 995.7 -0.7 36
2019-11-16 13:00:00 12.9 10 Oeste 19 Noroeste 0 996 0.3 44
2019-11-16 12:00:00 10.7 8 Oeste 15 Noroeste 0 996.6 1.7 53
2019-11-16 11:00:00 9.1 6 Oeste 10 Noroeste 0 996.4 2.5 59
2019-11-16 10:00:00 6.6 6 Oeste 12 Oeste 0 995.7 2.7 70
2019-11-16 09:00:00 2.3 2 Sudoeste 13 Oeste 0 994.9 2.6 87
2019-11-16 08:00:00 2.6 6 Sudoeste 13 Oeste 0 993.9 2.3 85
2019-11-16 07:00:00 2.3 9 Oeste 17 Oeste 0 993 2 87
2019-11-16 06:00:00 3.1 7 Oeste 17 Oeste 0 992.3 1.4 84
2019-11-16 05:00:00 4.3 8 Oeste 15 Sudoeste 0 991.6 1 79
2019-11-16 04:00:00 3.8 7 Oeste 14 Oeste 0 991 0.7 82
2019-11-16 03:00:00 4.2 8 Oeste 16 Oeste 0 990.9 1.1 82
2019-11-16 02:00:00 3.3 8 Oeste 17 Oeste 0 990.6 0.9 83
2019-11-16 01:00:00 4 9 Oeste 17 Noroeste 0 990.3 1.2 80
2019-11-16 00:00:00 5 6 Oeste 14 Noroeste 0 989.8 1.1 74
2019-11-15 23:00:00 5.7 10 Oeste 15 Oeste 0 989.7 1.6 69
2019-11-15 22:00:00 6.7 8 Oeste 19 Oeste 0 989.1 1.6 65
2019-11-15 21:00:00 7.6 12 Oeste 19 Oeste 0 988.7 1.7 58
2019-11-15 20:00:00 8.8 16 Noroeste 26 Noroeste 0 988.1 1.4 54
2019-11-15 19:00:00 10 21 Noroeste 30 Noroeste 0 987.5 1.1 48
2019-11-15 18:00:00 11.5 19 Noroeste 32 Noroeste 0 987 0.4 41
2019-11-15 17:00:00 13.2 20 Noroeste 32 Noroeste 0 986.7 -0.4 36
2019-11-15 16:00:00 13.9 22 Noroeste 29 Noroeste 0 986.4 -1.3 32
2019-11-15 15:00:00 14 18 Noroeste 37 Noroeste 0 986.6 -1.7 36
2019-11-15 14:00:00 13.5 23 Noroeste 43 Norte 0 987.1 -1.3 38
2019-11-15 13:00:00 12.6 26 Noroeste 50 Norte 0 987.7 -0.8 42
2019-11-15 12:00:00 11.3 19 Oeste 31 Noroeste 0 988.3 0.5 56
2019-11-15 11:00:00 9.6 24 Oeste 40 Noroeste 0 988.4 0.8 63
2019-11-15 10:00:00 8.2 19 Oeste 32 Noroeste 0 988.5 1.1 72
2019-11-15 09:00:00 6.1 13 Oeste 25 Oeste 0 987.8 0.5 83
2019-11-15 08:00:00 6.4 14 Oeste 28 Oeste 0 987.6 0.2 81
2019-11-15 07:00:00 6.7 14 Oeste 26 Oeste 0 987.4 0 79
2019-11-15 06:00:00 6.4 11 Oeste 24 Oeste 0 987.3 -0.3 79
2019-11-15 05:00:00 6.6 13 Oeste 26 Oeste 0 987.4 -0.2 83
2019-11-15 04:00:00 6.7 14 Oeste 33 Oeste 0 987.4 -0.5 81
2019-11-15 03:00:00 7.1 13 Oeste 31 Oeste 0 987.6 -0.3 79
2019-11-15 02:00:00 7.3 13 Oeste 29 Noroeste 0 987.6 -0.3 76
2019-11-15 01:00:00 7.7 17 Oeste 32 Oeste 0 987.9 0.3 74
2019-11-15 00:00:00 8.1 14 Oeste 36 Oeste 0 987.9 0.3 72
2019-11-14 23:00:00 8.5 22 Oeste 39 Oeste 0 987.9 0.7 70
2019-11-14 22:00:00 9.7 15 Oeste 31 Oeste 0 987.6 0.2 66
2019-11-14 21:00:00 10.1 17 Oeste 34 Oeste 0 987.6 0.7 70
2019-11-14 20:00:00 11 18 Oeste 32 Oeste 0 987.2 0 72
2019-11-14 19:00:00 10.7 13 Oeste 34 Oeste 0 987.4 0.7 74
2019-11-14 18:00:00 10.3 14 Oeste 57 Noroeste 0 986.9 0.6 69
2019-11-14 17:00:00 12.9 25 Oeste 46 Noroeste 0 987.2 -0.2 55
2019-11-14 16:00:00 13.5 31 Oeste 55 Noroeste 0 986.7 -1.4 53
2019-11-14 15:00:00 13.4 27 Oeste 45 Oeste 0 986.3 -2.7 52
2019-11-14 14:00:00 12.9 30 Noroeste 49 Noroeste 0 987.4 -1.5 54
2019-11-14 13:00:00 13.2 28 Oeste 50 Oeste 0 988.1 -0.6 58
2019-11-14 12:00:00 12.1 24 Oeste 41 Oeste 0 989 1 69
2019-11-14 11:00:00 11.2 26 Oeste 40 Noroeste 0 988.9 1.4 77
2019-11-14 10:00:00 11 24 Oeste 40 Oeste 0.4 988.7 0.9 86
2019-11-14 09:00:00 11.5 22 Oeste 41 Noroeste 0 988 -0.3 84
2019-11-14 08:00:00 12 16 Oeste 34 Oeste 0.2 987.5 -1.8 87
2019-11-14 07:00:00 11.3 13 Oeste 24 Oeste 0.2 987.8 -2.6 92
2019-11-14 06:00:00 11.3 9 Sudoeste 27 Oeste 0 988.3 -3.2 89
2019-11-14 05:00:00 11.1 9 Sudoeste 27 Oeste 0 989.3 -3.3 89
2019-11-14 04:00:00 10.9 12 Sudoeste 23 Oeste 0 990.4 -3.3 87
2019-11-14 03:00:00 10.1 10 Oeste 18 Sudoeste 0 991.5 -1.9 86
2019-11-14 02:00:00 10.9 7 Sudoeste 27 Oeste 0 992.6 -1.2 84
2019-11-14 01:00:00 11.1 11 Oeste 22 Oeste 0 993.7 -0.1 81
2019-11-14 00:00:00 11.3 8 Sudoeste 22 Sudoeste 0 993.4 -0.2 76
2019-11-13 23:00:00 11.9 10 Oeste 24 Oeste 0 993.8 0.1 75
2019-11-13 22:00:00 12.7 14 Oeste 27 Oeste 0 993.8 0.1 74
2019-11-13 21:00:00 13.6 17 Oeste 27 Oeste 0 993.6 0.5 75
2019-11-13 20:00:00 14.6 10 Oeste 26 Oeste 0 993.7 0.7 74
2019-11-13 19:00:00 15.9 10 Oeste 26 Oeste 0 993.7 0.9 68
2019-11-13 18:00:00 17.5 14 Oeste 28 Oeste 0 993.1 0.7 63
2019-11-13 17:00:00 19 17 Oeste 34 Noroeste 0 993 0.6 58
2019-11-13 16:00:00 20.2 20 Oeste 36 Noroeste 0 992.8 -0.4 55
2019-11-13 15:00:00 20.6 19 Oeste 35 Noroeste 0 992.4 -1.2 55
2019-11-13 14:00:00 20 17 Oeste 30 Oeste 0 992.4 -0.7 58
2019-11-13 13:00:00 19.5 19 Oeste 36 Noroeste 0 993.2 1 63
2019-11-13 12:00:00 18.2 26 Noroeste 39 Noroeste 0 993.6 2.1 68
2019-11-13 11:00:00 17.1 24 Oeste 36 Noroeste 0 993.1 2.2 72
2019-11-13 10:00:00 16.1 13 Oeste 27 Oeste 0 992.2 2.3 80
2019-11-13 09:00:00 14.1 10 Sudoeste 26 Oeste 0 991.5 1 93
2019-11-13 08:00:00 13.9 12 Sudoeste 35 Sudoeste 0 990.9 0.4 92
2019-11-13 07:00:00 13.7 11 Sudoeste 32 Oeste 0 989.9 -1.1 92
2019-11-13 06:00:00 13.9 12 Sudoeste 31 Sudoeste 0 990.5 -1 90
2019-11-13 05:00:00 13.8 8 Sudoeste 22 Oeste 0 990.5 -1.3 87
2019-11-13 04:00:00 14 10 Sudoeste 22 Oeste 0 991 -1.7 84
2019-11-13 03:00:00 13.8 10 Sudoeste 23 Oeste 0 991.5 -1.8 85
2019-11-13 02:00:00 13.7 9 Sudoeste 23 Oeste 0 991.8 -2 86
2019-11-13 01:00:00 13.9 9 Sudoeste 23 Oeste 0 992.7 -1.3 83
2019-11-13 00:00:00 13.8 9 Sudoeste 23 Sur 0 993.3 -0.7 84
2019-11-12 23:00:00 13.7 7 Sudoeste 20 Oeste 0 993.8 -0.4 83
2019-11-12 22:00:00 13.5 9 Sudoeste 26 Oeste 0 994 -0.7 81
2019-11-12 21:00:00 13.9 10 Sudoeste 21 Oeste 0 994 -0.6 76
2019-11-12 20:00:00 14.4 13 Oeste 25 Oeste 0 994.2 -0.5 71
2019-11-12 19:00:00 15 12 Oeste 30 Oeste 0 994.7 -0.1 66
2019-11-12 18:00:00 15.8 13 Oeste 31 Noroeste 0 994.6 -0.7 59
2019-11-12 17:00:00 17.5 15 Oeste 28 Noroeste 0 994.7 -1.2 50
2019-11-12 16:00:00 18 14 Oeste 28 Oeste 0 994.8 -2.2 45
2019-11-12 15:00:00 17.8 21 Noroeste 36 Noroeste 0 995.3 -2.1 40
2019-11-12 14:00:00 17.4 22 Noroeste 35 Noroeste 0 995.9 -1.6 41
2019-11-12 13:00:00 16.3 27 Noroeste 37 Oeste 0 997 -0.3 42
2019-11-12 12:00:00 15.5 21 Noroeste 33 Noroeste 0 997.4 0.4 46
2019-11-12 11:00:00 13.3 6 Oeste 17 Oeste 0 997.5 1.1 62
2019-11-12 10:00:00 10.6 6 Oeste 15 Oeste 0 997.3 1.3 78
2019-11-12 09:00:00 8 10 Oeste 17 Oeste 0 997 1.2 92
2019-11-12 08:00:00 7.7 8 Oeste 13 Oeste 0 996.4 0.4 94
2019-11-12 07:00:00 7.9 7 Oeste 13 Oeste 0 996 0.1 94
2019-11-12 06:00:00 7.9 4 Sudoeste 11 Sur 0 995.8 -0.7 93
2019-11-12 05:00:00 8.4 5 Oeste 11 Oeste 0 996 -0.9 91
2019-11-12 04:00:00 9.6 6 Oeste 16 Oeste 0 995.9 -0.9 87
2019-11-12 03:00:00 10 8 Oeste 15 Oeste 0 996.5 0 90
2019-11-12 02:00:00 10.3 8 Oeste 17 Oeste 0 996.9 0.4 91
2019-11-12 01:00:00 10 7 Oeste 17 Oeste 0 996.8 0.5 91
2019-11-12 00:00:00 10.5 9 Oeste 17 Oeste 0 996.5 0.1 88
2019-11-11 23:00:00 11.2 9 Oeste 18 Oeste 0 996.5 0.8 85
2019-11-11 22:00:00 12.1 10 Oeste 18 Oeste 0 996.3 1.1 80
2019-11-11 21:00:00 12.4 9 Oeste 23 Oeste 0 996.4 1.8 80
2019-11-11 20:00:00 13.6 13 Oeste 32 Noroeste 0 995.7 0.8 77
2019-11-11 19:00:00 15.1 17 Oeste 38 Noroeste 0 995.2 0.7 73
2019-11-11 18:00:00 17.5 19 Oeste 31 Noroeste 0 994.6 0 65
2019-11-11 17:00:00 19 19 Oeste 31 Noroeste 0 994.9 -0.2 68
2019-11-11 16:00:00 18.7 23 Oeste 31 Oeste 0 994.5 -2.3 72
2019-11-11 15:00:00 19.6 15 Oeste 27 Oeste 0 994.6 -2.6 70
2019-11-11 14:00:00 17.3 12 Oeste 27 Oeste 0 995.1 -2.6 82
2019-11-11 13:00:00 16.3 11 Oeste 19 Noroeste 0 996.8 -0.7 88
2019-11-11 12:00:00 15 11 Oeste 19 Noroeste 0 997.2 -0.7 94
2019-11-11 11:00:00 13.6 7 Oeste 13 Oeste 0 997.7 0.1 97
2019-11-11 10:00:00 12.5 4 Sudoeste 9 Sudoeste 0 997.5 0 97
2019-11-11 09:00:00 11.8 4 Oeste 8 Sudoeste 0 997.9 -0.2 96
2019-11-11 08:00:00 11.4 4 Sudoeste 8 Sudoeste 0 997.6 -0.6 96
2019-11-11 07:00:00 11.1 4 Sudeste 7 Sur 0 997.5 -1 96
2019-11-11 06:00:00 10.9 2 Sur 5 Sur 0 998.1 -0.1 96
2019-11-11 05:00:00 10.8 3 Sur 5 Sur 0 998.2 -1 96
2019-11-11 04:00:00 10.7 3 Sur 5 Sur 0 998.5 -1.2 95
2019-11-11 03:00:00 10.7 0 Calma 10 Oeste 0 998.2 -1.8 95
2019-11-11 02:00:00 10.5 4 Sudoeste 9 Sudoeste 0 999.2 -0.7 94
2019-11-11 01:00:00 10.6 3 Sudoeste 13 Oeste 0 999.7 0 92
2019-11-11 00:00:00 11.3 9 Oeste 21 Oeste 0 1000 0.4 83
2019-11-10 23:00:00 11.5 12 Oeste 21 Oeste 0 999.9 -0.1 79
2019-11-10 22:00:00 11.8 13 Oeste 22 Noroeste 0 999.7 -0.3 78
2019-11-10 21:00:00 11.9 14 Oeste 23 Oeste 0 999.6 -0.3 78
2019-11-10 20:00:00 12.3 15 Oeste 25 Oeste 0 1000 0.2 75
2019-11-10 19:00:00 12.5 15 Oeste 27 Oeste 0 1000 0.2 73
2019-11-10 18:00:00 12.8 16 Oeste 31 Noroeste 0 999.9 0.3 70
2019-11-10 17:00:00 13.3 15 Oeste 40 Noroeste 0 999.8 0 68
2019-11-10 16:00:00 14.1 24 Noroeste 37 Noroeste 0 999.8 -0.7 59
2019-11-10 15:00:00 14.9 23 Oeste 34 Noroeste 0 999.6 -1.3 53
2019-11-10 14:00:00 14.8 19 Noroeste 31 Noroeste 0 999.8 -1.3 47
2019-11-10 13:00:00 15.4 22 Noroeste 35 Noroeste 0 1000.5 -0.5 43
2019-11-10 12:00:00 15.7 22 Noroeste 35 Noroeste 0 1000.9 0.1 46
2019-11-10 11:00:00 13.8 14 Oeste 26 Noroeste 0 1001.1 1.1 63
2019-11-10 10:00:00 12.1 14 Oeste 21 Noroeste 0 1001 1.6 76
2019-11-10 09:00:00 9.1 7 Oeste 17 Oeste 0 1000.8 1.5 91
2019-11-10 08:00:00 8.5 12 Oeste 19 Oeste 0 1000 0.8 90
2019-11-10 07:00:00 8.8 10 Oeste 21 Oeste 0 999.4 0 88
2019-11-10 06:00:00 9 13 Oeste 22 Oeste 0 999.3 -0.1 90
2019-11-10 05:00:00 9.6 16 Oeste 27 Oeste 0 999.2 -0.5 90
2019-11-10 04:00:00 9.4 11 Oeste 27 Oeste 0 999.4 -0.5 88
2019-11-10 03:00:00 9.4 17 Oeste 26 Noroeste 0 999.4 -0.4 88
2019-11-10 02:00:00 9.6 15 Oeste 23 Noroeste 0 999.7 0.1 86
2019-11-10 01:00:00 9.9 14 Oeste 23 Oeste 0 999.9 0.9 88
2019-11-10 00:00:00 10.5 15 Oeste 25 Oeste 0 999.8 0.9 87
2019-11-09 23:00:00 11.7 12 Oeste 25 Oeste 0 999.6 0.9 85
2019-11-09 22:00:00 13.6 12 Oeste 27 Oeste 0 999 0.2 87
2019-11-09 21:00:00 13.9 12 Oeste 27 Oeste 0 998.9 0 90
2019-11-09 20:00:00 13.7 11 Sudoeste 28 Sudoeste 0 998.7 -0.4 90
2019-11-09 19:00:00 14.7 10 Sudoeste 26 Sudoeste 0 998.8 -0.6 81
2019-11-09 18:00:00 15.3 8 Sudoeste 31 Oeste 0 998.9 -1.3 71
2019-11-09 17:00:00 16.5 9 Sudoeste 27 Oeste 0 999.1 -1.9 64
2019-11-09 16:00:00 16.9 14 Oeste 30 Oeste 0 999.4 -2.8 60
2019-11-09 15:00:00 16.9 17 Oeste 31 Sudoeste 0 1000.2 -2.7 58
2019-11-09 14:00:00 17.3 14 Oeste 31 Noroeste 0 1001 -1.8 54
2019-11-09 13:00:00 16.7 17 Oeste 30 Noroeste 0 1002.2 -1 54
2019-11-09 12:00:00 14.4 13 Oeste 24 Oeste 0 1002.9 0 61
2019-11-09 11:00:00 12.1 14 Oeste 19 Noroeste 0 1002.8 0.3 69
2019-11-09 10:00:00 9.7 8 Oeste 15 Oeste 0 1003.2 0.6 78
2019-11-09 09:00:00 5.6 5 Sudoeste 10 Sudoeste 0 1002.9 0.6 90
2019-11-09 08:00:00 4.9 5 Oeste 10 Oeste 0 1002.5 0.8 90
2019-11-09 07:00:00 5.6 4 Sudoeste 9 Sudoeste 0 1002.6 0.5 87
2019-11-09 06:00:00 5.3 6 Oeste 11 Sudoeste 0 1002.3 -0.1 86
2019-11-09 05:00:00 5.7 4 Sudoeste 10 Oeste 0 1001.7 -0.7 85
2019-11-09 04:00:00 5.8 5 Sudoeste 12 Oeste 0 1002.1 -0.6 84
2019-11-09 03:00:00 6.6 4 Sudoeste 11 Oeste 0 1002.4 -0.2 81
2019-11-09 02:00:00 7.3 8 Oeste 12 Oeste 0 1002.4 0.2 79
2019-11-09 01:00:00 7.8 7 Oeste 13 Oeste 0 1002.7 0.8 76
2019-11-09 00:00:00 8.4 7 Oeste 14 Oeste 0 1002.6 1.1 73
2019-11-08 23:00:00 8.9 6 Oeste 15 Noroeste 0 1002.2 1.1 69
2019-11-08 22:00:00 9.7 10 Oeste 15 Sudoeste 0 1001.9 1.6 64
2019-11-08 21:00:00 9.9 7 Oeste 15 Oeste 0 1001.5 2 62
2019-11-08 20:00:00 10.7 12 Oeste 19 Oeste 0 1001.1 2.2 59
2019-11-08 19:00:00 12.5 12 Oeste 20 Noroeste 0 1000.3 1.7 50
2019-11-08 18:00:00 14.5 15 Noroeste 28 Noroeste 0 999.5 1.1 40
2019-11-08 17:00:00 16.1 17 Noroeste 30 Noroeste 0 998.9 0.3 37
2019-11-08 16:00:00 16.8 16 Noroeste 31 Noroeste 0 998.6 -0.5 32
2019-11-08 15:00:00 16.5 17 Noroeste 37 Noroeste 0 998.4 -1.2 32
2019-11-08 14:00:00 16.3 22 Noroeste 33 Noroeste 0 998.6 -0.6 33
2019-11-08 13:00:00 15.1 10 Noroeste 21 Noroeste 0 999.1 0 43
2019-11-08 12:00:00 13.8 12 Noroeste 24 Noroeste 0 999.6 1.5 50
2019-11-08 11:00:00 12 18 Noroeste 27 Noroeste 0 999.2 2 58
2019-11-08 10:00:00 10.5 13 Oeste 23 Oeste 0 999.1 2.5 72
2019-11-08 09:00:00 8.4 14 Oeste 23 Oeste 0 998.1 1.6 83
2019-11-08 08:00:00 8.4 10 Oeste 21 Oeste 0 997.2 1.6 85
2019-11-08 07:00:00 8.3 11 Oeste 19 Oeste 0 996.6 0.9 85
2019-11-08 06:00:00 8.4 9 Oeste 24 Oeste 0 996.5 0.9 84
2019-11-08 05:00:00 9.4 13 Oeste 26 Oeste 0 995.6 0.2 80
2019-11-08 04:00:00 10 13 Oeste 27 Oeste 0 995.7 0 81
2019-11-08 03:00:00 10.5 13 Oeste 24 Oeste 0 995.6 -0.2 78
2019-11-08 02:00:00 10.4 12 Oeste 20 Oeste 0 995.4 -0.5 78
2019-11-08 01:00:00 11 13 Oeste 25 Oeste 0 995.7 -0.1 76
2019-11-08 00:00:00 10.9 13 Oeste 23 Oeste 0 995.8 0.2 77
2019-11-07 23:00:00 11.7 12 Oeste 27 Oeste 0 995.9 0.6 70
2019-11-07 22:00:00 11.9 10 Oeste 24 Oeste 0 995.8 1.2 66
2019-11-07 21:00:00 12.1 12 Oeste 32 Noroeste 0 995.6 1.5 66
2019-11-07 20:00:00 13.2 22 Oeste 37 Noroeste 0 995.3 1.4 58
2019-11-07 19:00:00 13.4 19 Oeste 41 Oeste 0 994.6 0.8 50
2019-11-07 18:00:00 14.9 23 Oeste 46 Noroeste 0 994.1 0.1 45
2019-11-07 17:00:00 16.3 28 Oeste 49 Noroeste 0 993.9 -0.5 41
2019-11-07 16:00:00 17.5 27 Oeste 44 Noroeste 0 993.8 -1.2 38
2019-11-07 15:00:00 17.8 26 Oeste 43 Noroeste 0 994 -1.4 35
2019-11-07 14:00:00 17.6 24 Noroeste 43 Noroeste 0 994.4 -0.7 41
2019-11-07 13:00:00 17.2 27 Noroeste 42 Noroeste 0 995 0.7 43
2019-11-07 12:00:00 16.4 24 Noroeste 37 Noroeste 0 995.4 1.8 47
2019-11-07 11:00:00 15 25 Noroeste 35 Noroeste 0 995.1 2.5 58
2019-11-07 10:00:00 13.7 16 Oeste 29 Oeste 0 994.3 2.2 72
2019-11-07 09:00:00 12 14 Oeste 23 Noroeste 0 993.6 1.7 84
2019-11-07 08:00:00 13.2 13 Noroeste 27 Oeste 0 992.6 0.8 90
2019-11-07 07:00:00 14.4 14 Oeste 24 Oeste 0 992.1 0 93
2019-11-07 06:00:00 14.6 10 Oeste 22 Oeste 0 991.9 -0.5 94
2019-11-07 05:00:00 14.3 9 Sudoeste 20 Sudoeste 0 991.8 -1.1 94
2019-11-07 04:00:00 14 8 Sudoeste 26 Sudoeste 0 992.1 -1.8 94
2019-11-07 03:00:00 13.7 10 Sudoeste 25 Sudoeste 0 992.4 -2.2 93
2019-11-07 02:00:00 13.3 12 Sudoeste 29 Sur 0 992.9 -2.3 93
2019-11-07 01:00:00 13.8 8 Sudoeste 21 Sudoeste 0 993.9 -1.5 87
2019-11-07 00:00:00 13.8 6 Sudoeste 23 Sudoeste 0 994.6 -1.1 84
2019-11-06 23:00:00 13.6 5 Sudoeste 15 Sudoeste 0 995.2 -0.5 83
2019-11-06 22:00:00 14.1 5 Sudoeste 18 Oeste 0 995.4 -0.1 81
2019-11-06 21:00:00 14.5 10 Oeste 23 Oeste 0 995.7 0.4 78
2019-11-06 20:00:00 15 11 Oeste 22 Oeste 0 995.7 0.2 74
2019-11-06 19:00:00 15.2 15 Oeste 27 Oeste 0 995.5 -0.1 71
2019-11-06 18:00:00 16 17 Oeste 26 Oeste 0 995.3 -0.7 65
2019-11-06 17:00:00 17 12 Oeste 28 Oeste 0 995.5 -1 61
2019-11-06 16:00:00 17.2 15 Oeste 30 Oeste 0 995.6 -1.4 57
2019-11-06 15:00:00 17.6 17 Oeste 30 Oeste 0 996 -1.8 54
2019-11-06 14:00:00 17.7 18 Oeste 27 Noroeste 0 996.5 -1.7 53
2019-11-06 13:00:00 17.3 13 Oeste 24 Noroeste 0 997 -1.3 55
2019-11-06 12:00:00 16.8 11 Oeste 21 Oeste 0 997.8 -0.3 59
2019-11-06 11:00:00 14.2 12 Oeste 22 Oeste 0 998.2 0.6 76
2019-11-06 10:00:00 12.3 12 Oeste 22 Oeste 0 998.3 1 84
2019-11-06 09:00:00 9.6 12 Oeste 19 Oeste 0 998.1 0.7 95
2019-11-06 08:00:00 8.7 4 Sudoeste 15 Oeste 0 997.6 0.5 95
2019-11-06 07:00:00 8.7 7 Sudoeste 14 Oeste 0 997.3 0.1 94
2019-11-06 06:00:00 9.3 8 Sudoeste 15 Oeste 0 997.4 -0.2 94
2019-11-06 05:00:00 9.5 6 Oeste 15 Oeste 0 997.1 -0.5 94
2019-11-06 04:00:00 9.9 8 Oeste 23 Noroeste 0 997.2 -0.6 93
2019-11-06 03:00:00 10.1 8 Oeste 17 Oeste 0 997.6 0.1 92
2019-11-06 02:00:00 10.5 10 Oeste 18 Oeste 0 997.6 0 89
2019-11-06 01:00:00 10.7 9 Oeste 16 Oeste 0 997.8 0.6 88
2019-11-06 00:00:00 11.3 7 Oeste 18 Oeste 0 997.5 1 85